Time;durP1;ratioP1;P1;durP2;ratioP2;P2;SDS_P1;SDS_P2;PMS_P1;PMS_P2;Temp;Humidity;BMP_temperature;BMP_pressure;BME280_temperature;BME280_humidity;BME280_pressure;Samples;Min_cycle;Max_cycle;Signal;HPM_P1;HPM_P2
2023/02/25 00:00:32;;;;;;;3.30;3.20;;;;;;;3.10;100.00;100253.94;6064709;23;20030;-71
2023/02/25 00:02:58;;;;;;;2.80;2.70;;;;;;;2.66;100.00;100173.94;6061419;23;20233;-71
2023/02/25 00:05:25;;;;;;;3.17;3.00;;;;;;;3.09;100.00;100242.72;6065416;23;20670;-70
2023/02/25 00:07:53;;;;;;;3.00;2.90;;;;;;;3.03;100.00;100258.47;6058111;23;20062;-71
2023/02/25 00:10:20;;;;;;;5.22;3.50;;;;;;;3.04;100.00;100251.53;6063546;23;20338;-71
2023/02/25 00:12:46;;;;;;;3.78;3.58;;;;;;;2.83;100.00;100221.84;6060544;23;20024;-71
2023/02/25 00:15:13;;;;;;;3.70;3.50;;;;;;;2.37;100.00;100149.72;6058951;23;20199;-71
2023/02/25 00:17:39;;;;;;;3.40;3.30;;;;;;;2.42;100.00;100185.00;6061058;23;20042;-71
2023/02/25 00:20:08;;;;;;;3.50;3.30;;;;;;;2.41;100.00;100176.38;6062115;23;20192;-71
2023/02/25 00:22:35;;;;;;;3.35;3.25;;;;;;;2.96;100.00;100264.69;6057532;23;20054;-71
2023/02/25 00:25:02;;;;;;;3.70;3.38;;;;;;;2.95;100.00;100258.66;6062452;23;20268;-71
2023/02/25 00:27:28;;;;;;;3.13;3.03;;;;;;;2.28;100.00;100155.13;6057473;23;20022;-70
2023/02/25 00:29:54;;;;;;;3.60;3.40;;;;;;;2.87;100.00;100252.84;6061194;23;20040;-71
2023/02/25 00:32:21;;;;;;;4.10;3.90;;;;;;;2.88;100.00;100261.47;6076090;23;20006;-71
2023/02/25 00:34:48;;;;;;;3.03;2.92;;;;;;;2.86;100.00;100253.72;6049075;23;20388;-71
2023/02/25 00:37:15;;;;;;;3.50;3.30;;;;;;;2.36;100.00;100170.47;6076946;23;20488;-71
2023/02/25 00:39:42;;;;;;;3.40;3.20;;;;;;;2.08;100.00;100122.00;6080461;23;20457;-71
2023/02/25 00:42:13;;;;;;;3.10;3.00;;;;;;;2.32;100.00;100167.09;6079122;23;20559;-72
2023/02/25 00:44:42;;;;;;;3.40;3.30;;;;;;;2.82;100.00;100241.75;6079445;23;20112;-71
2023/02/25 00:47:09;;;;;;;2.95;2.85;;;;;;;1.92;100.00;100125.91;6080492;23;20143;-71
2023/02/25 00:49:35;;;;;;;3.05;2.95;;;;;;;2.57;100.00;100213.09;6079295;23;20408;-71
2023/02/25 00:52:02;;;;;;;3.00;2.90;;;;;;;2.25;100.00;100150.06;6080999;23;20072;-71
2023/02/25 00:54:29;;;;;;;3.35;3.25;;;;;;;1.53;100.00;100035.50;6081349;23;20044;-71
2023/02/25 00:56:55;;;;;;;3.00;2.90;;;;;;;2.67;100.00;100221.47;6083555;23;20030;-70
2023/02/25 00:59:21;;;;;;;2.92;2.83;;;;;;;2.71;100.00;100220.47;6080333;23;20032;-71
2023/02/25 01:01:48;;;;;;;3.08;2.97;;;;;;;2.29;100.00;100168.94;6080468;23;20018;-71
2023/02/25 01:04:14;;;;;;;3.30;3.20;;;;;;;2.62;100.00;100236.25;6078358;23;20259;-71
2023/02/25 01:06:41;;;;;;;3.20;3.10;;;;;;;2.03;100.00;100152.34;6078743;23;20021;-71
2023/02/25 01:09:12;;;;;;;4.10;3.45;;;;;;;2.51;100.00;100240.00;6081827;23;20162;-71
2023/02/25 01:11:42;;;;;;;7.72;4.30;;;;;;;2.54;100.00;100241.63;6078650;23;20304;-71
2023/02/25 01:14:18;;;;;;;2.90;2.80;;;;;;;2.56;100.00;100226.91;6082448;23;20029;-71
2023/02/25 01:16:45;;;;;;;3.40;3.30;;;;;;;2.50;100.00;100208.94;6078893;23;20037;-70
2023/02/25 01:19:15;;;;;;;2.60;2.50;;;;;;;2.08;100.00;100124.59;6079411;23;20025;-71
2023/02/25 01:21:44;;;;;;;3.20;3.10;;;;;;;2.67;100.00;100232.66;6076402;23;20034;-71
2023/02/25 01:24:17;;;;;;;3.13;3.03;;;;;;;2.71;100.00;100231.69;6080280;23;20073;-71
2023/02/25 01:26:44;;;;;;;;;;;;;;;2.65;100.00;100231.84;6079851;23;20029;-71
2023/02/25 01:29:13;;;;;;;5.38;3.25;;;;;;;2.71;100.00;100236.88;6079186;23;20176;-71
2023/02/25 01:31:40;;;;;;;3.05;2.92;;;;;;;2.25;100.00;100168.19;6040695;23;20918;-71
2023/02/25 01:34:09;;;;;;;2.60;2.50;;;;;;;1.91;100.00;100122.47;6056464;23;20269;-71
2023/02/25 01:36:36;;;;;;;3.17;3.08;;;;;;;1.09;100.00;99980.63;6057872;23;20080;-72
2023/02/25 01:39:03;;;;;;;2.80;2.70;;;;;;;2.66;100.00;100232.69;6063949;23;20317;-71
2023/02/25 01:41:31;;;;;;;3.88;3.58;;;;;;;2.07;100.00;100135.00;6059751;23;20445;-71
2023/02/25 01:44:22;;;;;;;4.50;3.67;;;;;;;2.71;100.00;100244.63;6062720;23;20041;-71
2023/02/25 01:46:52;;;;;;;2.90;2.80;;;;;;;2.56;100.00;100225.16;6049865;23;20594;-71
2023/02/25 01:49:33;;;;;;;2.97;2.83;;;;;;;2.72;100.00;100267.06;6059666;23;20111;-71
2023/02/25 01:52:07;;;;;;;3.00;2.90;;;;;;;2.73;100.00;100237.69;6060900;23;20394;-71
2023/02/25 01:54:35;;;;;;;3.88;3.63;;;;;;;2.55;100.00;100227.81;6062033;23;20033;-71
2023/02/25 01:57:05;;;;;;;3.28;3.03;;;;;;;2.36;100.00;100230.88;6062850;23;20036;-70
2023/02/25 01:59:34;;;;;;;2.80;2.70;;;;;;;2.53;100.00;100207.13;6062006;23;20651;-72
2023/02/25 02:02:01;;;;;;;3.00;2.90;;;;;;;2.05;100.00;100141.97;6036856;23;20077;-71
2023/02/25 02:04:29;;;;;;;3.10;3.00;;;;;;;2.79;100.00;100249.63;6058829;23;20106;-70
2023/02/25 02:06:56;;;;;;;2.80;2.70;;;;;;;2.12;100.00;100167.63;6064395;23;20014;-71
2023/02/25 02:09:27;;;;;;;6.40;3.25;;;;;;;2.64;100.00;100245.69;6057711;23;20031;-70
2023/02/25 02:12:00;;;;;;;2.80;2.70;;;;;;;2.08;100.00;100153.06;6063530;23;20408;-71
2023/02/25 02:14:30;;;;;;;2.90;2.80;;;;;;;2.18;100.00;100171.81;6059396;23;20584;-72
2023/02/25 02:17:04;;;;;;;3.08;2.88;;;;;;;2.72;100.00;100261.03;6057744;23;20037;-71
2023/02/25 02:19:37;;;;;;;10.18;3.00;;;;;;;2.26;100.00;100200.94;6059142;23;20030;-70
2023/02/25 02:22:06;;;;;;;;;;;;;;;2.62;100.00;100260.41;6054547;23;20018;-70
2023/02/25 02:24:58;;;;;;;3.47;3.28;;;;;;;2.63;100.00;100258.69;6072319;23;20259;-70
2023/02/25 02:27:35;;;;;;;3.47;3.28;;;;;;;2.59;100.00;100247.56;6060794;23;20034;-70
2023/02/25 02:30:15;;;;;;;3.38;3.28;;;;;;;2.12;100.00;100184.91;6056535;23;20406;-71
2023/02/25 02:32:58;;;;;;;3.05;2.95;;;;;;;2.35;100.00;100220.56;6077685;23;20046;-70
2023/02/25 02:36:00;;;;;;;2.80;2.70;;;;;;;1.23;100.00;100031.97;6076524;23;20028;-70
2023/02/25 02:38:36;;;;;;;10.02;3.53;;;;;;;1.74;100.00;100133.22;6080455;23;20678;-70
2023/02/25 02:41:21;;;;;;;3.58;3.38;;;;;;;2.34;100.00;100230.06;6078077;23;20014;-72
2023/02/25 02:43:53;;;;;;;2.90;2.80;;;;;;;2.48;100.00;100260.78;6076447;23;20093;-70
2023/02/25 02:46:42;;;;;;;10.20;4.78;;;;;;;2.16;100.00;100196.88;6080644;23;20433;-70
2023/02/25 02:49:42;;;;;;;3.25;3.15;;;;;;;2.42;100.00;100255.75;6071927;23;20014;-70
2023/02/25 02:52:17;;;;;;;3.00;2.90;;;;;;;2.42;100.00;100252.31;6072993;23;20242;-71
2023/02/25 02:54:50;;;;;;;3.00;2.90;;;;;;;2.08;100.00;100211.75;5945518;23;20083;-70
2023/02/25 02:57:20;;;;;;;2.78;2.67;;;;;;;2.51;100.00;100255.53;6084049;23;20531;-72
2023/02/25 03:00:06;;;;;;;3.60;3.42;;;;;;;1.68;100.00;100138.56;6082331;23;20038;-71
2023/02/25 03:02:36;;;;;;;8.15;3.22;;;;;;;1.63;100.00;100134.41;6081415;23;20052;-69
2023/02/25 03:05:08;;;;;;;3.00;2.90;;;;;;;2.51;100.00;100259.88;6081991;23;20050;-70
2023/02/25 03:07:41;;;;;;;2.97;2.88;;;;;;;2.49;100.00;100266.84;6085154;23;20050;-70
2023/02/25 03:10:15;;;;;;;3.20;3.10;;;;;;;2.09;100.00;100208.28;6082481;23;20156;-71
2023/02/25 03:12:43;;;;;;;3.50;3.30;;;;;;;2.30;100.00;100243.97;6082322;23;20282;-70
2023/02/25 03:15:10;;;;;;;3.30;3.10;;;;;;;2.28;100.00;100237.97;6105648;23;20426;-71
2023/02/25 03:17:53;;;;;;;3.05;2.95;;;;;;;0.59;100.00;99947.34;6078846;23;20028;-70
2023/02/25 03:20:27;;;;;;;2.80;2.70;;;;;;;2.18;100.00;100224.41;6082452;23;20081;-71
2023/02/25 03:22:58;;;;;;;2.88;2.78;;;;;;;2.59;100.00;100279.50;6080567;23;20441;-70
2023/02/25 03:25:30;;;;;;;3.10;3.00;;;;;;;2.53;100.00;100282.25;6081843;23;20287;-70
2023/02/25 03:28:17;;;;;;;;;;;;;;;2.55;100.00;100269.25;6081064;23;20238;-70
2023/02/25 03:30:50;;;;;;;8.65;3.30;;;;;;;2.23;100.00;100218.31;6075368;23;19922;-71
2023/02/25 03:33:38;;;;;;;9.00;3.70;;;;;;;2.60;100.00;100275.16;6062096;23;20456;-70
2023/02/25 03:36:11;;;;;;;3.00;2.90;;;;;;;1.44;100.00;100084.84;6054219;23;20063;-70
2023/02/25 03:38:45;;;;;;;2.97;2.88;;;;;;;2.24;100.00;100218.25;6062107;23;20135;-69
2023/02/25 03:41:15;;;;;;;2.90;2.80;;;;;;;2.11;100.00;100198.75;6056103;23;20571;-69
2023/02/25 03:43:47;;;;;;;10.07;5.07;;;;;;;2.31;100.00;100237.91;6058185;23;20178;-70
2023/02/25 03:46:16;;;;;;;3.70;3.20;;;;;;;2.65;100.00;100275.06;6064656;23;20098;-70
2023/02/25 03:48:43;;;;;;;4.18;3.88;;;;;;;1.93;100.00;100167.25;6059826;23;20026;-70
2023/02/25 03:51:14;;;;;;;12.50;3.28;;;;;;;2.20;100.00;100195.91;6062139;23;20131;-70
2023/02/25 03:53:40;;;;;;;3.05;2.95;;;;;;;2.16;100.00;100194.28;6054770;23;20026;-70
2023/02/25 03:56:09;;;;;;;3.75;3.40;;;;;;;2.67;100.00;100279.28;6039810;23;20523;-71
2023/02/25 03:58:38;;;;;;;2.70;2.60;;;;;;;1.18;100.00;100025.16;6033082;23;20608;-71
2023/02/25 04:01:10;;;;;;;3.13;3.03;;;;;;;2.73;100.00;100281.72;6056670;23;20025;-70
2023/02/25 04:03:37;;;;;;;2.83;2.72;;;;;;;1.31;100.00;100041.22;6062605;23;20022;-70
2023/02/25 04:06:03;;;;;;;4.05;2.88;;;;;;;2.76;100.00;100288.56;6059727;23;20011;-70
2023/02/25 04:08:30;;;;;;;2.70;2.60;;;;;;;2.36;100.00;100225.69;6060350;23;20234;-70
2023/02/25 04:10:56;;;;;;;2.95;2.85;;;;;;;2.53;100.00;100248.56;6056170;23;20105;-70
2023/02/25 04:13:22;;;;;;;9.02;4.30;;;;;;;2.13;100.00;100202.16;6060708;23;20037;-71
2023/02/25 04:15:49;;;;;;;2.90;2.80;;;;;;;2.73;100.00;100306.78;6056775;23;20030;-71
2023/02/25 04:18:16;;;;;;;3.30;3.10;;;;;;;2.11;100.00;100190.97;6056107;23;20255;-71
2023/02/25 04:20:43;;;;;;;3.10;3.00;;;;;;;1.89;100.00;100164.81;6065636;23;20088;-70
2023/02/25 04:23:13;;;;;;;3.05;2.90;;;;;;;2.55;100.00;100271.84;6062456;23;20046;-70
2023/02/25 04:25:39;;;;;;;2.90;2.80;;;;;;;2.42;100.00;100257.50;6057729;23;20033;-70
2023/02/25 04:28:06;;;;;;;5.78;2.90;;;;;;;2.67;100.00;100305.19;6059280;23;20144;-71
2023/02/25 04:30:32;;;;;;;3.22;3.13;;;;;;;2.30;100.00;100249.16;6068519;23;20059;-71
2023/02/25 04:33:00;;;;;;;2.90;2.80;;;;;;;2.07;100.00;100218.69;6080797;23;20440;-71
2023/02/25 04:35:26;;;;;;;3.05;2.95;;;;;;;2.68;100.00;100304.28;6080115;23;20385;-71
2023/02/25 04:37:52;;;;;;;3.00;2.90;;;;;;;2.27;100.00;100256.16;6076846;23;20025;-70
2023/02/25 04:40:21;;;;;;;3.03;2.92;;;;;;;2.67;100.00;100312.97;6083488;23;20085;-71
2023/02/25 04:42:48;;;;;;;3.20;3.10;;;;;;;2.20;100.00;100237.31;6080030;23;20478;-70
2023/02/25 04:45:15;;;;;;;3.00;2.90;;;;;;;2.71;100.00;100311.16;6079571;23;20540;-70
2023/02/25 04:47:42;;;;;;;3.08;2.97;;;;;;;2.69;100.00;100302.59;6085031;23;20038;-70
2023/02/25 04:50:10;;;;;;;3.00;2.90;;;;;;;2.19;100.00;100230.47;6100344;23;20109;-71
2023/02/25 04:52:36;;;;;;;2.90;2.80;;;;;;;2.71;100.00;100308.56;6079541;23;20030;-70
2023/02/25 04:55:04;;;;;;;3.22;3.10;;;;;;;2.73;100.00;100305.03;6077371;23;20111;-70
2023/02/25 04:57:30;;;;;;;3.65;3.10;;;;;;;2.69;100.00;100311.19;6077900;23;20298;-70
2023/02/25 04:59:57;;;;;;;3.50;3.30;;;;;;;2.32;100.00;100243.94;6078152;23;20022;-70
2023/02/25 05:02:23;;;;;;;9.13;3.13;;;;;;;2.12;100.00;100210.78;6080286;23;20285;-72
2023/02/25 05:04:49;;;;;;;3.10;3.00;;;;;;;1.34;100.00;100138.50;6079145;23;20339;-70
2023/02/25 05:07:16;;;;;;;2.90;2.80;;;;;;;2.55;100.00;100282.22;6080724;23;20044;-70
2023/02/25 05:09:43;;;;;;;3.38;3.28;;;;;;;1.95;100.00;100177.59;6083270;23;20726;-70
2023/02/25 05:12:09;;;;;;;2.92;2.83;;;;;;;2.31;100.00;100245.69;6100249;23;20480;-69
2023/02/25 05:14:36;;;;;;;3.20;3.10;;;;;;;2.33;100.00;100267.22;6077810;23;20037;-69
2023/02/25 05:17:03;;;;;;;3.30;3.10;;;;;;;2.62;100.00;100301.88;6102989;23;20476;-70
2023/02/25 05:19:29;;;;;;;3.20;3.10;;;;;;;1.75;100.00;100155.63;6080748;23;20097;-70
2023/02/25 05:21:56;;;;;;;3.00;2.90;;;;;;;1.08;100.00;100065.00;6084550;23;20033;-70
2023/02/25 05:24:22;;;;;;;4.00;3.70;;;;;;;2.61;100.00;100320.91;6079430;23;20334;-70
2023/02/25 05:26:50;;;;;;;3.00;2.90;;;;;;;2.25;100.00;100279.50;6077527;23;20030;-70
2023/02/25 05:29:16;;;;;;;2.90;2.80;;;;;;;1.12;100.00;100046.00;6077553;23;20079;-71
2023/02/25 05:31:43;;;;;;;3.55;3.38;;;;;;;2.04;100.00;100212.72;6077652;23;20526;-70
2023/02/25 05:34:10;;;;;;;3.20;3.03;;;;;;;0.95;100.00;100036.03;6080494;23;20025;-71
2023/02/25 05:36:36;;;;;;;3.00;2.90;;;;;;;2.09;100.00;100231.59;6079964;23;20022;-70
2023/02/25 05:39:03;;;;;;;3.40;3.30;;;;;;;2.59;100.00;100309.72;6078608;23;20079;-70
2023/02/25 05:41:29;;;;;;;3.00;2.90;;;;;;;2.32;100.00;100252.53;6060784;23;20010;-71
2023/02/25 05:43:57;;;;;;;2.92;2.83;;;;;;;2.35;100.00;100296.50;6079471;23;20032;-71
2023/02/25 05:46:24;;;;;;;2.95;2.85;;;;;;;2.60;100.00;100311.41;6077886;23;20014;-70
2023/02/25 05:48:51;;;;;;;3.35;3.17;;;;;;;2.41;100.00;100287.75;6077341;23;20034;-71
2023/02/25 05:51:21;;;;;;;3.30;3.20;;;;;;;2.68;100.00;100314.66;6078574;23;20030;-71
2023/02/25 05:53:48;;;;;;;4.53;4.13;;;;;;;2.14;100.00;100232.31;6051750;23;20101;-71
2023/02/25 05:56:19;;;;;;;3.00;2.90;;;;;;;2.12;100.00;100227.16;6080114;23;20030;-71
2023/02/25 05:58:47;;;;;;;4.45;4.05;;;;;;;2.26;100.00;100246.69;6078557;23;20466;-70
2023/02/25 06:01:17;;;;;;;2.80;2.70;;;;;;;2.62;100.00;100306.22;6078192;23;20357;-70
2023/02/25 06:03:46;;;;;;;2.90;2.80;;;;;;;2.59;100.00;100315.75;6078058;23;20030;-71
2023/02/25 06:06:13;;;;;;;2.85;2.75;;;;;;;2.57;100.00;100314.94;6083752;23;20046;-71
2023/02/25 06:08:43;;;;;;;3.40;3.20;;;;;;;2.38;100.00;100274.84;6080166;23;20025;-71
2023/02/25 06:11:14;;;;;;;2.80;2.70;;;;;;;2.38;100.00;100300.75;6078961;23;20296;-70
2023/02/25 06:13:41;;;;;;;3.60;3.40;;;;;;;2.53;100.00;100331.47;6077655;23;20029;-70
2023/02/25 06:16:07;;;;;;;3.30;3.20;;;;;;;1.96;100.00;100211.16;6060374;23;20434;-71
2023/02/25 06:18:36;;;;;;;3.38;3.20;;;;;;;1.71;100.00;100179.88;6077825;23;20030;-71
2023/02/25 06:21:07;;;;;;;3.13;3.03;;;;;;;2.63;100.00;100319.13;6074422;23;20017;-71
2023/02/25 06:23:35;;;;;;;2.95;2.85;;;;;;;2.56;100.00;100323.59;6054137;23;20046;-71
2023/02/25 06:26:03;;;;;;;2.90;2.80;;;;;;;1.32;100.00;100137.69;6075215;23;20626;-71
2023/02/25 06:28:31;;;;;;;3.85;3.65;;;;;;;1.83;100.00;100221.88;6077919;23;20280;-72
2023/02/25 06:30:57;;;;;;;3.28;3.17;;;;;;;1.94;100.00;100245.72;6077799;23;20033;-70
2023/02/25 06:33:24;;;;;;;2.78;2.67;;;;;;;1.95;100.00;100229.34;6076995;23;20030;-70
2023/02/25 06:35:52;;;;;;;3.30;3.17;;;;;;;0.17;100.00;99939.69;6074913;23;20037;-71
2023/02/25 06:38:19;;;;;;;4.80;4.57;;;;;;;2.43;100.00;100303.25;6072302;23;20429;-70
2023/02/25 06:40:46;;;;;;;2.80;2.70;;;;;;;2.57;100.00;100340.00;6078912;23;20053;-70
2023/02/25 06:43:13;;;;;;;3.28;3.17;;;;;;;2.36;100.00;100310.28;6077407;23;20050;-71
2023/02/25 06:45:39;;;;;;;2.92;2.83;;;;;;;2.33;100.00;100298.28;6078132;23;20028;-71
2023/02/25 06:48:06;;;;;;;2.88;2.78;;;;;;;2.28;100.00;100296.69;6076110;23;20367;-71
2023/02/25 06:50:33;;;;;;;3.40;3.22;;;;;;;2.57;100.00;100351.22;6083507;23;20030;-71
2023/02/25 06:52:59;;;;;;;3.20;3.03;;;;;;;2.47;100.00;100335.94;6078154;23;20017;-71
2023/02/25 06:55:26;;;;;;;3.00;2.90;;;;;;;2.35;100.00;100326.75;6079578;23;20038;-71
2023/02/25 06:57:53;;;;;;;3.45;3.35;;;;;;;2.16;100.00;100298.69;6078248;23;20448;-71
2023/02/25 07:00:20;;;;;;;3.30;3.10;;;;;;;2.06;100.00;100294.59;6078326;23;20480;-71
2023/02/25 07:02:46;;;;;;;3.22;3.10;;;;;;;1.17;100.00;100126.84;6076545;23;20041;-71
2023/02/25 07:05:13;;;;;;;3.33;3.22;;;;;;;2.36;100.00;100344.81;6076834;23;20034;-71
2023/02/25 07:07:39;;;;;;;2.75;2.63;;;;;;;2.23;100.00;100295.97;6078906;23;20030;-71
2023/02/25 07:10:06;;;;;;;3.05;2.92;;;;;;;2.44;100.00;100326.50;6079287;23;20330;-71
2023/02/25 07:12:33;;;;;;;2.95;2.85;;;;;;;2.30;100.00;100307.84;6077323;23;20025;-71
2023/02/25 07:14:59;;;;;;;2.80;2.70;;;;;;;2.06;100.00;100268.72;6077566;23;20065;-71
2023/02/25 07:17:25;;;;;;;6.57;3.00;;;;;;;2.12;100.00;100266.00;6080425;23;20197;-72
2023/02/25 07:19:52;;;;;;;2.92;2.83;;;;;;;2.44;100.00;100356.72;6077040;23;20030;-71
2023/02/25 07:22:18;;;;;;;3.33;3.15;;;;;;;2.39;100.00;100312.81;6077274;23;20043;-71
2023/02/25 07:24:45;;;;;;;2.90;2.80;;;;;;;2.57;100.00;100347.78;6074680;23;20268;-70
2023/02/25 07:27:12;;;;;;;3.22;3.13;;;;;;;2.16;100.00;100277.13;6078085;23;20084;-70
2023/02/25 07:29:39;;;;;;;3.30;3.05;;;;;;;2.15;100.00;100281.47;6074329;23;20033;-71
2023/02/25 07:32:07;;;;;;;2.97;2.78;;;;;;;2.88;100.00;100420.41;6048629;23;20029;-72
2023/02/25 07:34:36;;;;;;;3.40;3.20;;;;;;;1.68;100.00;100187.69;6081947;23;20380;-72
2023/02/25 07:37:02;;;;;;;3.10;2.90;;;;;;;2.56;100.00;100325.34;6081866;23;20032;-71
2023/02/25 07:39:28;;;;;;;5.32;3.75;;;;;;;2.75;100.00;100333.50;6076665;23;20031;-71
2023/02/25 07:41:55;;;;;;;3.17;3.08;;;;;;;2.70;100.00;100323.25;6082772;23;20207;-70
2023/02/25 07:44:22;;;;;;;3.40;3.20;;;;;;;2.88;100.00;100354.75;6081425;23;20037;-72
2023/02/25 07:46:48;;;;;;;2.97;2.88;;;;;;;2.34;100.00;100278.41;6083031;23;20036;-71
2023/02/25 07:49:15;;;;;;;2.85;2.75;;;;;;;3.14;100.00;100380.00;6087023;23;20033;-71
2023/02/25 07:51:43;;;;;;;3.65;3.45;;;;;;;2.20;100.00;100263.22;6079272;23;20151;-71
2023/02/25 07:54:10;;;;;;;2.97;2.88;;;;;;;2.98;100.00;100375.22;6073157;23;20472;-70
2023/02/25 07:56:36;;;;;;;6.22;3.70;;;;;;;2.91;100.00;100362.47;6081399;23;20029;-70
2023/02/25 07:59:02;;;;;;;21.25;3.55;;;;;;;2.84;100.00;100338.44;6074212;23;20095;-71
2023/02/25 08:01:32;;;;;;;2.92;2.83;;;;;;;3.07;100.00;100373.28;6081743;23;20417;-71
2023/02/25 08:04:04;;;;;;;3.25;3.08;;;;;;;3.33;100.00;100408.91;6083125;23;20142;-71
2023/02/25 08:06:36;;;;;;;3.38;3.28;;;;;;;3.07;100.00;100376.72;6080374;23;20029;-70
2023/02/25 08:09:04;;;;;;;2.90;2.80;;;;;;;3.26;100.00;100390.03;6081601;23;20013;-71
2023/02/25 08:11:31;;;;;;;3.80;3.50;;;;;;;3.34;100.00;100398.47;6078916;23;20030;-71
2023/02/25 08:14:00;;;;;;;4.00;3.80;;;;;;;3.50;100.00;100413.63;6079596;23;20037;-71
2023/02/25 08:16:27;;;;;;;3.38;3.28;;;;;;;3.55;100.00;100412.59;6079987;23;20473;-70
2023/02/25 08:18:53;;;;;;;4.05;3.75;;;;;;;3.46;100.00;100422.38;6081354;23;20221;-71
2023/02/25 08:21:22;;;;;;;4.03;3.58;;;;;;;3.36;100.00;100388.06;6078520;23;20033;-71
2023/02/25 08:23:51;;;;;;;3.47;3.38;;;;;;;2.89;100.00;100296.88;6079762;23;20033;-71
2023/02/25 08:26:21;;;;;;;12.35;3.38;;;;;;;3.58;100.00;100404.72;6079280;23;20140;-70
2023/02/25 08:28:48;;;;;;;3.40;3.20;;;;;;;3.03;100.00;100305.13;6080128;23;20407;-70
2023/02/25 08:31:15;;;;;;;3.00;2.90;;;;;;;3.21;100.00;100324.50;6079669;23;20014;-71
2023/02/25 08:33:48;;;;;;;10.55;3.40;;;;;;;3.85;100.00;100409.16;6078450;23;20034;-70
2023/02/25 08:36:17;;;;;;;3.25;3.15;;;;;;;3.73;100.00;100380.09;6080078;23;20077;-70
2023/02/25 08:38:43;;;;;;;6.85;3.58;;;;;;;3.85;100.00;100391.00;6064260;23;20056;-70
2023/02/25 08:41:11;;;;;;;3.85;3.65;;;;;;;3.84;100.00;100429.09;6078956;23;20032;-70
2023/02/25 08:43:39;;;;;;;5.72;3.50;;;;;;;3.35;100.00;100347.47;6083562;23;20041;-72
2023/02/25 08:46:07;;;;;;;7.35;3.20;;;;;;;3.14;100.00;100333.31;6051379;23;20512;-71
2023/02/25 08:48:34;;;;;;;3.53;3.33;;;;;;;3.27;100.00;100367.53;6085566;23;20216;-70
2023/02/25 08:51:07;;;;;;;3.22;3.13;;;;;;;3.71;100.00;100423.41;6077555;23;20240;-70
2023/02/25 08:53:37;;;;;;;3.05;2.95;;;;;;;3.27;100.00;100372.72;6081711;23;20041;-70
2023/02/25 08:56:05;;;;;;;4.90;4.00;;;;;;;3.64;100.00;100446.97;6080136;23;20077;-71
2023/02/25 08:58:33;;;;;;;3.20;3.10;;;;;;;3.73;100.00;100444.13;6081820;23;20029;-71
2023/02/25 09:01:00;;;;;;;3.03;2.92;;;;;;;3.50;100.00;100411.88;6079507;23;20099;-71
2023/02/25 09:03:26;;;;;;;12.93;6.00;;;;;;;3.65;100.00;100446.94;6083190;23;20777;-71
2023/02/25 09:05:54;;;;;;;3.63;3.42;;;;;;;2.98;100.00;100362.25;6077353;23;20166;-70
2023/02/25 09:08:21;;;;;;;3.45;3.25;;;;;;;3.45;100.00;100437.09;6079516;23;20010;-70
2023/02/25 09:10:48;;;;;;;3.47;3.30;;;;;;;2.71;100.00;100331.91;6079487;23;20410;-70
2023/02/25 09:13:16;;;;;;;4.75;4.38;;;;;;;2.92;100.00;100370.19;6083408;23;20026;-70
2023/02/25 09:15:42;;;;;;;3.60;3.38;;;;;;;2.62;100.00;100332.97;6081337;23;20503;-70
2023/02/25 09:18:10;;;;;;;3.75;3.55;;;;;;;2.82;100.00;100366.13;6078560;23;20229;-70
2023/02/25 09:20:36;;;;;;;4.90;4.57;;;;;;;2.85;100.00;100353.09;6081303;23;20511;-70
2023/02/25 09:23:03;;;;;;;2.90;2.80;;;;;;;3.10;100.00;100394.78;6080762;23;20492;-70
2023/02/25 09:25:29;;;;;;;10.73;4.45;;;;;;;2.42;100.00;100270.47;6079908;23;20374;-70
2023/02/25 09:27:56;;;;;;;3.40;3.30;;;;;;;3.54;100.00;100454.16;6080450;23;20029;-70
2023/02/25 09:30:22;;;;;;;3.30;3.20;;;;;;;3.15;100.00;100413.66;6078097;23;20157;-71
2023/02/25 09:32:49;;;;;;;5.43;4.95;;;;;;;3.85;100.00;100502.59;6078857;23;20103;-70
2023/02/25 09:35:15;;;;;;;6.13;3.90;;;;;;;3.80;100.00;100456.03;6077011;23;20423;-70
2023/02/25 09:37:42;;;;;;;7.50;3.95;;;;;;;3.52;100.00;100407.47;6074040;23;20166;-71
2023/02/25 09:40:15;;;;;;;4.18;3.97;;;;;;;2.89;100.00;100318.44;6079925;23;20029;-70
2023/02/25 09:42:54;;;;;;;4.10;3.90;;;;;;;3.45;100.00;100395.59;6077509;23;20010;-70
2023/02/25 09:45:23;;;;;;;3.25;3.15;;;;;;;4.27;100.00;100479.78;6085937;23;20029;-71
2023/02/25 09:47:57;;;;;;;3.20;3.10;;;;;;;4.64;100.00;100481.25;6076238;23;20206;-71
2023/02/25 09:50:38;;;;;;;4.55;3.53;;;;;;;4.67;100.00;100462.97;6075990;23;20202;-70
2023/02/25 09:53:14;;;;;;;3.67;3.50;;;;;;;4.82;100.00;100464.22;6078312;23;20018;-71
2023/02/25 09:55:46;;;;;;;5.65;4.47;;;;;;;4.84;100.00;100495.38;6076796;23;20351;-70
2023/02/25 09:58:35;;;;;;;3.40;3.25;;;;;;;4.84;100.00;100495.38;6078393;23;20034;-72
2023/02/25 10:01:14;;;;;;;3.33;3.13;;;;;;;4.95;100.00;100507.13;6079311;23;20100;-71
2023/02/25 10:03:59;;;;;;;3.75;3.55;;;;;;;5.02;100.00;100505.19;6052355;23;20542;-71
2023/02/25 10:06:42;;;;;;;3.78;3.55;;;;;;;5.03;100.00;100506.88;6082997;23;20034;-71
2023/02/25 10:09:50;;;;;;;3.33;3.22;;;;;;;4.94;100.00;100494.19;6078927;23;20062;-70
2023/02/25 10:12:35;;;;;;;3.88;3.58;;;;;;;4.88;100.00;100481.38;6075057;23;20049;-71
2023/02/25 10:15:19;;;;;;;3.35;3.20;;;;;;;5.02;100.00;100489.56;6077153;23;20405;-70
2023/02/25 10:18:23;;;;;;;14.07;6.72;;;;;;;5.43;100.00;100489.94;6082978;23;20032;-70
2023/02/25 10:21:06;;;;;;;7.72;4.00;;;;;;;6.06;100.00;100497.31;6074270;23;20542;-70
2023/02/25 10:23:53;;;;;;;3.72;3.53;;;;;;;6.34;100.00;100499.75;6076285;23;20282;-71
2023/02/25 10:26:28;;;;;;;3.60;3.40;;;;;;;6.16;100.00;100454.38;6076313;23;20117;-71
2023/02/25 10:29:03;;;;;;;4.00;3.80;;;;;;;5.74;100.00;100448.06;6078447;23;20381;-71
2023/02/25 10:31:31;;;;;;;4.18;3.75;;;;;;;5.54;100.00;100435.75;6077618;23;20025;-70
2023/02/25 10:34:13;;;;;;;4.60;4.40;;;;;;;5.14;100.00;100418.09;6077084;23;20087;-71
2023/02/25 10:36:45;;;;;;;4.55;4.15;;;;;;;4.39;100.00;100432.66;6080585;23;20018;-72
2023/02/25 10:39:11;;;;;;;4.32;4.03;;;;;;;3.37;100.00;100402.72;6079213;23;20047;-71
2023/02/25 10:41:37;;;;;;;3.67;3.55;;;;;;;2.74;100.00;100396.56;6079951;23;20827;-71
2023/02/25 10:44:04;;;;;;;4.00;3.72;;;;;;;1.91;100.00;100365.69;6095674;23;20640;-71
2023/02/25 10:46:57;;;;;;;4.55;4.25;;;;;;;2.52;100.00;100499.84;6079033;23;20037;-71
2023/02/25 10:49:26;;;;;;;3.55;3.35;;;;;;;1.26;100.00;100394.59;6077829;23;20413;-72
2023/02/25 10:52:26;;;;;;;3.20;3.10;;;;;;;1.53;100.00;100504.41;6076687;23;20082;-72
2023/02/25 10:54:53;;;;;;;3.47;3.28;;;;;;;-0.22;100.00;100352.22;6073193;23;20030;-72
2023/02/25 10:57:32;;;;;;;3.38;3.28;;;;;;;0.85;100.00;100582.19;6076020;23;20087;-73
2023/02/25 11:00:25;;;;;;;3.63;3.42;;;;;;;0.49;100.00;100562.88;6077906;23;20074;-72
2023/02/25 11:02:52;;;;;;;3.45;3.30;;;;;;;0.29;100.00;100588.94;6076658;23;20033;-72
2023/02/25 11:05:37;;;;;;;3.22;3.13;;;;;;;0.46;100.00;100566.38;6078407;23;20308;-72
2023/02/25 11:08:07;;;;;;;3.17;3.08;;;;;;;-0.05;100.00;100471.50;6083413;23;20432;-72
2023/02/25 11:10:34;;;;;;;3.50;3.30;;;;;;;0.40;100.00;100545.78;6083175;23;20047;-72
2023/02/25 11:13:02;;;;;;;2.95;2.85;;;;;;;0.63;100.00;100531.72;6082132;23;20021;-72
2023/02/25 11:15:33;;;;;;;3.10;3.00;;;;;;;1.08;100.00;100584.44;6082668;23;20030;-73
2023/02/25 11:18:10;;;;;;;2.35;2.25;;;;;;;1.26;100.00;100590.22;6081268;23;20055;-73
2023/02/25 11:20:38;;;;;;;2.83;2.72;;;;;;;-0.68;100.00;100250.59;6056415;23;20037;-73
2023/02/25 11:23:04;;;;;;;2.72;2.63;;;;;;;1.32;100.00;100559.09;6081223;23;20035;-73
2023/02/25 11:25:38;;;;;;;2.95;2.85;;;;;;;1.60;100.00;100593.09;6082644;23;20031;-73
2023/02/25 11:28:15;;;;;;;2.65;2.55;;;;;;;0.15;100.00;100347.41;6081535;23;20095;-73
2023/02/25 11:30:41;;;;;;;3.20;3.03;;;;;;;1.80;100.00;100582.41;6103421;23;20030;-73
2023/02/25 11:33:29;;;;;;;2.70;2.60;;;;;;;2.21;100.00;100557.47;6079679;23;20049;-73
2023/02/25 11:35:58;;;;;;;3.80;3.60;;;;;;;2.75;100.00;100598.66;6081560;23;20026;-73
2023/02/25 11:38:36;;;;;;;2.60;2.50;;;;;;;1.93;100.00;100389.81;6090255;23;20030;-73
2023/02/25 11:41:09;;;;;;;3.10;3.00;;;;;;;3.26;100.00;100575.91;6083005;23;20017;-73